Share

Ankara, Turkey

1:04 AM EEST on April 25, 2014 (GMT +0300)
Esenboga (LTAC) Elev 3114 ft | 40.13 °N, 33.00 °E | Change Station

Current weather conditions updated 14 minutes ago

Scattered Clouds
Scattered Clouds
57 °F
Feels Like 57 °F
N
13
Wind Variable Wind from NNE
Sunrise 5:56 AM
Sunset 7:36 PM
Moon Waning Crescent

Today is forecast to be nearly the same temperature as yesterday. Partly cloudy with a stray thunderstorm.

Pressure 29.92 in
Visibility 6.2 miles
Clouds Scattered Clouds 4000 ft
Scattered Clouds 18000 ft
Dew Point 48 °F
Humidity 72%
Rainfall 0.00 in
Snow Depth Not available.
UV 0 out of 16
Pollen Not available.
Air Quality Not available.
Flu Activity Not available.
METAR LTAC 242150Z 02011KT 9999 SCT040 SCT180 14/09 Q1013 NOSIG

More Conditions Fewer Conditions

Pressure 29.92 in
Visibility 6.2 miles
Clouds Scattered Clouds 4000 ft
Scattered Clouds 18000 ft
Dew Point 48 °F
Humidity 72%
Rainfall 0.00 in
Snow Depth Not available.
UV 0 out of 16
Pollen Not available.
Air Quality Not available.
Flu Activity Not available.
METAR LTAC 242150Z 02011KT 9999 SCT040 SCT180 14/09 Q1013 NOSIG

More Conditions Fewer Conditions

10-Day Weather Forecast

Almanac

Astronomy

Apr. 25, 2014 Rise Set
Actual Time 5:56 AM EEST 7:36 PM EEST
Civil Twilight 5:27 AM EEST 8:05 PM EEST
Nautical Twilight 4:52 AM EEST 8:40 PM EEST
Astronomical Twilight 4:15 AM EEST 9:17 PM EEST
Moon 3:31 AM EEST (4/25) 3:36 PM EEST (4/25)
Length of Visible Light 14h 38m
Length of Day
13h 40m
Tomorrow will be 2m 22s longer.
Waning Crescent, 22% of the Moon is Illuminated
Apr 24
Waning Crescent
Apr 29
New
May 6
First Quarter
May 14
Full
May 21
Last Quarter

Yesterday's Extremes

Country Highs Country Lows

Community

  • Jone Runs Falls
    Jone Runs Falls
  • Sunset at Apalachicola Bay, Florida
    Sunset at Apalachicola Bay, Florida
  • Clouds mov'n in
    Clouds mov'n in
  • Stacked
    Stacked
  • clouds approaching Red Sox Nation
    clouds approaching Red Sox Nation

WunderPhotos

Upload Photos

1,704,727 photos uploaded!

Nearby

Snow Depth

Not available.

Coastal Water Temperatures

Place Temperature
No Stations Reporting

Earthquake Activity

City Distance Mag. Time & Date
No recent earthquake activity has been reported nearby.
Minimum magnitude displayed is 2.5.

Nearby Weather Stations

There are no personal weather stations in this area.

What do you think?

We're not finished. Please let us know what you like, what you don't like, and what you are still missing.